• Join FlightAware (Why Join?)
  • Login
  • US Flag 
03:08PM EDT


 

Airport Tracker/Info


-or-


 

Live Flight TrackerFlight Track Log ✈ ASH20 ✈ 03-May-2013 ✈ PHOG / OGG - PHNL

Flight Track Log - Related Links

Times and Time Zones

All times are in EDT time to prevent confusion due to time zone crossing. See the ASH20 flight status page for this flight to view local times or setup timezone preferences in your user account.

Time Position Orientation Groundspeed Altitude Reporting Facility
EDT Latitude Longitude Course Direction KTS MPH feet Rate Location/Type
12:14PM 20.9167 -156.4167 255° West 170 196 1,300  Level Honolulu Center
12:15PM 20.9667 -156.4333 343° North 230 265 3,700 2,640 Climbing Honolulu Center
12:16PM 21.0167 -156.4833 317° Northwest 260 299 6,600 2,820 Climbing Honolulu Center
12:17PM 21.0500 -156.5667 293° West 290 334 9,400 2,160 Climbing Honolulu Center
12:18PM 21.0333 -156.6500 258° West 310 357 11,000 1,440 Climbing Honolulu Center
12:19PM 21.0167 -156.7500 260° West 360 414 12,400 1,440 Climbing Honolulu Center
12:20PM 20.7693 -156.8896 255° West  Level FlightAware Approximate
12:20PM 21.0000 -156.8500 260° West 360 414 14,000  Level Honolulu Center
12:21PM 20.9833 -156.9667 261° West 360 414 15,400 960 Climbing Honolulu Center
12:22PM 20.9833 -157.0500 270° West 370 426 16,000 300 Climbing Honolulu Center
12:23PM 20.9667 -157.1667 261° West 350 403 16,000 -360 Level Honolulu Center
12:24PM 20.9500 -157.2833 261° West 360 414 15,300 -1,440 Descending Honolulu Center
12:25PM 20.9500 -157.3833 270° West 350 403 13,200 -2,100 Descending Honolulu Center
12:26PM 20.9667 -157.4833 280° West 320 368 11,200 -1,920 Descending Honolulu Center
12:27PM 20.9833 -157.5667 282° West 290 334 9,400 -1,860 Descending Honolulu Center
12:28PM 21.0333 -157.6500 303° West 280 322 7,500 -1,920 Descending Honolulu Center
12:29PM 21.0500 -157.7167 285° West 270 311 5,600 -1,800 Descending Honolulu Center
12:30PM 21.0833 -157.7833 298° West 270 311 4,000 -1,560 Descending Honolulu Center
12:31PM 21.1167 -157.8667 293° West 280 322 2,500 -1,260 Descending Honolulu Center
12:32PM 21.1500 -157.9333 298° West 240 276 1,500 -540 Descending Honolulu Center
12:33PM 21.2000 -157.9500 343° North 210 242 1,500  Level Honolulu Center